sensor_id;sensor_type;location;lat;lon;timestamp;temperature;humidity
3037;DHT22;1528;52.550;13.408;2023-10-08T00:02:34;13.30;53.90
3037;DHT22;1528;52.550;13.408;2023-10-08T00:05:20;13.30;53.90
3037;DHT22;1528;52.550;13.408;2023-10-08T00:08:08;13.20;53.00
3037;DHT22;1528;52.550;13.408;2023-10-08T00:10:56;13.20;53.50
3037;DHT22;1528;52.550;13.408;2023-10-08T00:13:47;13.20;53.30
3037;DHT22;1528;52.550;13.408;2023-10-08T00:16:32;13.20;53.60
3037;DHT22;1528;52.550;13.408;2023-10-08T00:19:18;13.10;53.40
3037;DHT22;1528;52.550;13.408;2023-10-08T00:22:05;13.10;53.40
3037;DHT22;1528;52.550;13.408;2023-10-08T00:24:55;13.10;53.50
3037;DHT22;1528;52.550;13.408;2023-10-08T00:27:42;13.10;53.60
3037;DHT22;1528;52.550;13.408;2023-10-08T00:30:27;13.10;54.00
3037;DHT22;1528;52.550;13.408;2023-10-08T00:33:15;13.10;53.70
3037;DHT22;1528;52.550;13.408;2023-10-08T00:36:00;13.10;53.50
3037;DHT22;1528;52.550;13.408;2023-10-08T00:39:03;13.10;53.70
3037;DHT22;1528;52.550;13.408;2023-10-08T00:41:54;13.10;53.90
3037;DHT22;1528;52.550;13.408;2023-10-08T00:44:42;13.10;53.20
3037;DHT22;1528;52.550;13.408;2023-10-08T00:47:35;13.10;53.70
3037;DHT22;1528;52.550;13.408;2023-10-08T00:50:27;13.10;53.90
3037;DHT22;1528;52.550;13.408;2023-10-08T00:53:26;13.10;53.70
3037;DHT22;1528;52.550;13.408;2023-10-08T00:56:12;13.00;54.00
3037;DHT22;1528;52.550;13.408;2023-10-08T00:59:04;13.00;54.00
3037;DHT22;1528;52.550;13.408;2023-10-08T01:01:52;13.00;53.90
3037;DHT22;1528;52.550;13.408;2023-10-08T01:04:43;13.00;54.00
3037;DHT22;1528;52.550;13.408;2023-10-08T01:07:29;13.00;54.00
3037;DHT22;1528;52.550;13.408;2023-10-08T01:10:15;13.00;53.90
3037;DHT22;1528;52.550;13.408;2023-10-08T01:13:04;13.00;54.10
3037;DHT22;1528;52.550;13.408;2023-10-08T01:15:59;13.00;54.10
3037;DHT22;1528;52.550;13.408;2023-10-08T01:18:46;13.00;54.30
3037;DHT22;1528;52.550;13.408;2023-10-08T01:21:34;13.00;54.00
3037;DHT22;1528;52.550;13.408;2023-10-08T01:24:22;13.00;53.80
3037;DHT22;1528;52.550;13.408;2023-10-08T01:27:08;13.00;53.50
3037;DHT22;1528;52.550;13.408;2023-10-08T01:29:56;13.00;53.50
3037;DHT22;1528;52.550;13.408;2023-10-08T01:32:52;13.00;53.70
3037;DHT22;1528;52.550;13.408;2023-10-08T01:35:38;13.00;53.60
3037;DHT22;1528;52.550;13.408;2023-10-08T01:38:24;13.00;52.90
3037;DHT22;1528;52.550;13.408;2023-10-08T01:41:13;13.00;53.20
3037;DHT22;1528;52.550;13.408;2023-10-08T01:44:03;13.00;52.70
3037;DHT22;1528;52.550;13.408;2023-10-08T01:46:52;13.00;52.70
3037;DHT22;1528;52.550;13.408;2023-10-08T01:49:37;13.00;52.80
3037;DHT22;1528;52.550;13.408;2023-10-08T01:52:24;13.00;53.00
3037;DHT22;1528;52.550;13.408;2023-10-08T01:55:09;13.00;53.00
3037;DHT22;1528;52.550;13.408;2023-10-08T01:58:03;13.00;53.80
3037;DHT22;1528;52.550;13.408;2023-10-08T02:00:49;13.00;53.10
3037;DHT22;1528;52.550;13.408;2023-10-08T02:03:36;13.00;53.10
3037;DHT22;1528;52.550;13.408;2023-10-08T02:06:22;13.00;53.00
3037;DHT22;1528;52.550;13.408;2023-10-08T02:09:07;13.00;52.90
3037;DHT22;1528;52.550;13.408;2023-10-08T02:11:54;13.00;53.20
3037;DHT22;1528;52.550;13.408;2023-10-08T02:14:42;13.00;53.00
3037;DHT22;1528;52.550;13.408;2023-10-08T02:17:29;13.00;53.00
3037;DHT22;1528;52.550;13.408;2023-10-08T02:20:15;13.00;52.80
3037;DHT22;1528;52.550;13.408;2023-10-08T02:23:00;13.00;53.20
3037;DHT22;1528;52.550;13.408;2023-10-08T02:25:45;13.00;53.30
3037;DHT22;1528;52.550;13.408;2023-10-08T02:28:32;13.00;53.00
3037;DHT22;1528;52.550;13.408;2023-10-08T02:31:19;12.90;52.60
3037;DHT22;1528;52.550;13.408;2023-10-08T02:34:05;13.00;52.70
3037;DHT22;1528;52.550;13.408;2023-10-08T02:36:51;12.90;52.90
3037;DHT22;1528;52.550;13.408;2023-10-08T02:39:37;12.90;52.80
3037;DHT22;1528;52.550;13.408;2023-10-08T02:42:24;12.90;52.90
3037;DHT22;1528;52.550;13.408;2023-10-08T02:45:11;12.90;52.90
3037;DHT22;1528;52.550;13.408;2023-10-08T02:47:59;12.80;52.60
3037;DHT22;1528;52.550;13.408;2023-10-08T02:50:44;12.80;53.30
3037;DHT22;1528;52.550;13.408;2023-10-08T02:53:30;12.80;52.80
3037;DHT22;1528;52.550;13.408;2023-10-08T02:56:16;12.80;52.90
3037;DHT22;1528;52.550;13.408;2023-10-08T02:59:02;12.80;52.60
3037;DHT22;1528;52.550;13.408;2023-10-08T03:01:49;12.80;52.70
3037;DHT22;1528;52.550;13.408;2023-10-08T03:04:38;12.80;52.70
3037;DHT22;1528;52.550;13.408;2023-10-08T03:07:23;12.80;52.30
3037;DHT22;1528;52.550;13.408;2023-10-08T03:10:16;12.80;52.60
3037;DHT22;1528;52.550;13.408;2023-10-08T03:13:03;12.80;52.80
3037;DHT22;1528;52.550;13.408;2023-10-08T03:15:50;12.80;52.50
3037;DHT22;1528;52.550;13.408;2023-10-08T03:18:52;12.80;52.40
3037;DHT22;1528;52.550;13.408;2023-10-08T03:21:40;12.80;52.10
3037;DHT22;1528;52.550;13.408;2023-10-08T03:24:33;12.80;52.10
3037;DHT22;1528;52.550;13.408;2023-10-08T03:27:24;12.80;52.30
3037;DHT22;1528;52.550;13.408;2023-10-08T03:30:11;12.80;52.00
3037;DHT22;1528;52.550;13.408;2023-10-08T03:32:58;12.80;52.00
3037;DHT22;1528;52.550;13.408;2023-10-08T03:35:45;12.80;52.30
3037;DHT22;1528;52.550;13.408;2023-10-08T03:38:32;12.80;51.90
3037;DHT22;1528;52.550;13.408;2023-10-08T03:41:28;12.80;52.10
3037;DHT22;1528;52.550;13.408;2023-10-08T03:44:15;12.80;51.80
3037;DHT22;1528;52.550;13.408;2023-10-08T03:47:01;12.80;51.80
3037;DHT22;1528;52.550;13.408;2023-10-08T03:49:54;12.70;51.70
3037;DHT22;1528;52.550;13.408;2023-10-08T03:52:40;12.70;51.80
3037;DHT22;1528;52.550;13.408;2023-10-08T03:55:28;12.70;52.40
3037;DHT22;1528;52.550;13.408;2023-10-08T03:58:18;12.70;51.80
3037;DHT22;1528;52.550;13.408;2023-10-08T04:01:11;12.70;51.70
3037;DHT22;1528;52.550;13.408;2023-10-08T04:04:03;12.70;51.70
3037;DHT22;1528;52.550;13.408;2023-10-08T04:06:48;12.70;52.20
3037;DHT22;1528;52.550;13.408;2023-10-08T04:09:35;12.70;51.70
3037;DHT22;1528;52.550;13.408;2023-10-08T04:12:25;12.70;51.80
3037;DHT22;1528;52.550;13.408;2023-10-08T04:15:11;12.70;51.80
3037;DHT22;1528;52.550;13.408;2023-10-08T04:17:58;12.60;51.70
3037;DHT22;1528;52.550;13.408;2023-10-08T04:20:47;12.60;51.70
3037;DHT22;1528;52.550;13.408;2023-10-08T04:23:44;12.60;51.40
3037;DHT22;1528;52.550;13.408;2023-10-08T04:26:31;12.50;51.20
3037;DHT22;1528;52.550;13.408;2023-10-08T04:29:17;12.60;51.70
3037;DHT22;1528;52.550;13.408;2023-10-08T04:32:07;12.60;51.50
3037;DHT22;1528;52.550;13.408;2023-10-08T04:34:56;12.50;51.60
3037;DHT22;1528;52.550;13.408;2023-10-08T04:37:41;12.60;51.70
3037;DHT22;1528;52.550;13.408;2023-10-08T04:40:27;12.50;51.90
3037;DHT22;1528;52.550;13.408;2023-10-08T04:43:21;12.50;51.70
3037;DHT22;1528;52.550;13.408;2023-10-08T04:46:10;12.50;51.60
3037;DHT22;1528;52.550;13.408;2023-10-08T04:49:04;12.50;51.70
3037;DHT22;1528;52.550;13.408;2023-10-08T04:51:55;12.40;51.60
3037;DHT22;1528;52.550;13.408;2023-10-08T04:54:43;12.40;51.60
3037;DHT22;1528;52.550;13.408;2023-10-08T04:57:35;12.40;51.70
3037;DHT22;1528;52.550;13.408;2023-10-08T05:00:21;12.40;51.80
3037;DHT22;1528;52.550;13.408;2023-10-08T05:03:28;12.30;51.90
3037;DHT22;1528;52.550;13.408;2023-10-08T05:06:28;12.30;51.90
3037;DHT22;1528;52.550;13.408;2023-10-08T05:09:34;12.30;52.00
3037;DHT22;1528;52.550;13.408;2023-10-08T05:12:32;12.30;51.90
3037;DHT22;1528;52.550;13.408;2023-10-08T05:15:21;12.20;52.00
3037;DHT22;1528;52.550;13.408;2023-10-08T05:18:16;12.20;52.50
3037;DHT22;1528;52.550;13.408;2023-10-08T05:21:23;12.20;52.10
3037;DHT22;1528;52.550;13.408;2023-10-08T05:24:19;12.20;52.20
3037;DHT22;1528;52.550;13.408;2023-10-08T05:27:11;12.10;52.40
3037;DHT22;1528;52.550;13.408;2023-10-08T05:30:23;12.10;52.90
3037;DHT22;1528;52.550;13.408;2023-10-08T05:33:25;12.10;52.50
3037;DHT22;1528;52.550;13.408;2023-10-08T05:36:12;12.10;52.40
3037;DHT22;1528;52.550;13.408;2023-10-08T05:39:04;12.10;52.70
3037;DHT22;1528;52.550;13.408;2023-10-08T05:42:04;12.00;52.30
3037;DHT22;1528;52.550;13.408;2023-10-08T05:44:57;12.10;52.30
3037;DHT22;1528;52.550;13.408;2023-10-08T05:47:58;12.10;52.30
3037;DHT22;1528;52.550;13.408;2023-10-08T05:51:06;12.10;52.80
3037;DHT22;1528;52.550;13.408;2023-10-08T05:53:57;12.10;52.40
3037;DHT22;1528;52.550;13.408;2023-10-08T05:56:44;12.10;52.40
3037;DHT22;1528;52.550;13.408;2023-10-08T05:59:48;12.10;52.30
3037;DHT22;1528;52.550;13.408;2023-10-08T06:02:58;12.10;52.80
3037;DHT22;1528;52.550;13.408;2023-10-08T06:05:53;12.10;52.10
3037;DHT22;1528;52.550;13.408;2023-10-08T06:09:02;12.30;52.30
3037;DHT22;1528;52.550;13.408;2023-10-08T06:12:08;12.10;52.10
3037;DHT22;1528;52.550;13.408;2023-10-08T06:14:56;12.10;52.00
3037;DHT22;1528;52.550;13.408;2023-10-08T06:17:56;12.10;52.10
3037;DHT22;1528;52.550;13.408;2023-10-08T06:20:42;12.10;51.90
3037;DHT22;1528;52.550;13.408;2023-10-08T06:23:29;12.10;52.00
3037;DHT22;1528;52.550;13.408;2023-10-08T06:26:16;12.20;51.90
3037;DHT22;1528;52.550;13.408;2023-10-08T06:29:06;12.30;51.70
3037;DHT22;1528;52.550;13.408;2023-10-08T06:32:03;12.40;51.50
3037;DHT22;1528;52.550;13.408;2023-10-08T06:34:48;12.50;51.00
3037;DHT22;1528;52.550;13.408;2023-10-08T06:37:34;12.60;51.10
3037;DHT22;1528;52.550;13.408;2023-10-08T06:40:20;12.60;51.40
3037;DHT22;1528;52.550;13.408;2023-10-08T06:43:24;12.60;50.40
3037;DHT22;1528;52.550;13.408;2023-10-08T06:46:11;12.50;50.20
3037;DHT22;1528;52.550;13.408;2023-10-08T06:48:57;12.50;49.60
3037;DHT22;1528;52.550;13.408;2023-10-08T06:51:43;12.50;49.40
3037;DHT22;1528;52.550;13.408;2023-10-08T06:54:28;12.50;49.30
3037;DHT22;1528;52.550;13.408;2023-10-08T06:57:15;12.80;48.90
3037;DHT22;1528;52.550;13.408;2023-10-08T07:00:05;12.50;48.30
3037;DHT22;1528;52.550;13.408;2023-10-08T07:02:57;12.50;48.50
3037;DHT22;1528;52.550;13.408;2023-10-08T07:05:45;12.50;49.20
3037;DHT22;1528;52.550;13.408;2023-10-08T07:08:38;12.50;48.80
3037;DHT22;1528;52.550;13.408;2023-10-08T07:11:27;12.50;48.20
3037;DHT22;1528;52.550;13.408;2023-10-08T07:14:12;12.50;48.10
3037;DHT22;1528;52.550;13.408;2023-10-08T07:16:59;12.50;48.10
3037;DHT22;1528;52.550;13.408;2023-10-08T07:19:46;12.50;47.70
3037;DHT22;1528;52.550;13.408;2023-10-08T07:22:35;12.50;46.80
3037;DHT22;1528;52.550;13.408;2023-10-08T07:25:23;12.50;46.50
3037;DHT22;1528;52.550;13.408;2023-10-08T07:28:09;12.50;46.10
3037;DHT22;1528;52.550;13.408;2023-10-08T07:30:56;12.50;46.20
3037;DHT22;1528;52.550;13.408;2023-10-08T07:33:42;12.50;46.30
3037;DHT22;1528;52.550;13.408;2023-10-08T07:36:29;12.60;46.50
3037;DHT22;1528;52.550;13.408;2023-10-08T07:39:15;12.60;45.70
3037;DHT22;1528;52.550;13.408;2023-10-08T07:42:10;12.60;44.90
3037;DHT22;1528;52.550;13.408;2023-10-08T07:44:55;12.70;45.70
3037;DHT22;1528;52.550;13.408;2023-10-08T07:47:41;12.90;45.60
3037;DHT22;1528;52.550;13.408;2023-10-08T07:50:27;12.70;45.10
3037;DHT22;1528;52.550;13.408;2023-10-08T07:53:14;12.70;43.90
3037;DHT22;1528;52.550;13.408;2023-10-08T07:56:03;12.80;43.40
3037;DHT22;1528;52.550;13.408;2023-10-08T07:58:51;12.80;42.60
3037;DHT22;1528;52.550;13.408;2023-10-08T08:01:36;12.80;42.00
3037;DHT22;1528;52.550;13.408;2023-10-08T08:04:21;12.80;42.20
3037;DHT22;1528;52.550;13.408;2023-10-08T08:07:08;12.90;42.10
3037;DHT22;1528;52.550;13.408;2023-10-08T08:10:03;12.90;41.70
3037;DHT22;1528;52.550;13.408;2023-10-08T08:12:54;12.90;39.20
3037;DHT22;1528;52.550;13.408;2023-10-08T08:15:41;12.90;41.20
3037;DHT22;1528;52.550;13.408;2023-10-08T08:18:36;13.00;41.00
3037;DHT22;1528;52.550;13.408;2023-10-08T08:21:22;13.10;39.50
3037;DHT22;1528;52.550;13.408;2023-10-08T08:24:10;13.10;40.50
3037;DHT22;1528;52.550;13.408;2023-10-08T08:26:58;13.20;39.30
3037;DHT22;1528;52.550;13.408;2023-10-08T08:29:53;13.20;38.60
3037;DHT22;1528;52.550;13.408;2023-10-08T08:32:40;13.20;35.60
3037;DHT22;1528;52.550;13.408;2023-10-08T08:35:27;13.30;35.50
3037;DHT22;1528;52.550;13.408;2023-10-08T08:38:12;13.40;37.50
3037;DHT22;1528;52.550;13.408;2023-10-08T08:41:04;13.40;38.60
3037;DHT22;1528;52.550;13.408;2023-10-08T08:43:53;13.60;36.40
3037;DHT22;1528;52.550;13.408;2023-10-08T08:46:43;13.80;36.10
3037;DHT22;1528;52.550;13.408;2023-10-08T08:49:32;14.00;35.50
3037;DHT22;1528;52.550;13.408;2023-10-08T08:52:18;14.20;31.20
3037;DHT22;1528;52.550;13.408;2023-10-08T08:55:05;14.30;31.40
3037;DHT22;1528;52.550;13.408;2023-10-08T08:57:59;14.60;34.10
3037;DHT22;1528;52.550;13.408;2023-10-08T09:00:47;14.80;31.20
3037;DHT22;1528;52.550;13.408;2023-10-08T09:03:33;14.90;28.50
3037;DHT22;1528;52.550;13.408;2023-10-08T09:06:18;15.10;29.20
3037;DHT22;1528;52.550;13.408;2023-10-08T09:09:04;15.20;32.10
3037;DHT22;1528;52.550;13.408;2023-10-08T09:12:06;15.30;29.00
3037;DHT22;1528;52.550;13.408;2023-10-08T09:15:00;15.40;28.00
3037;DHT22;1528;52.550;13.408;2023-10-08T09:17:48;15.40;29.10
3037;DHT22;1528;52.550;13.408;2023-10-08T09:24:18;15.50;27.10
3037;DHT22;1528;52.550;13.408;2023-10-08T09:27:04;15.50;26.80
3037;DHT22;1528;52.550;13.408;2023-10-08T09:29:51;15.50;26.50
3037;DHT22;1528;52.550;13.408;2023-10-08T09:32:39;15.60;25.30
3037;DHT22;1528;52.550;13.408;2023-10-08T09:35:27;15.30;25.20
3037;DHT22;1528;52.550;13.408;2023-10-08T09:38:13;15.40;25.60
3037;DHT22;1528;52.550;13.408;2023-10-08T09:41:07;15.40;25.20
3037;DHT22;1528;52.550;13.408;2023-10-08T09:43:53;15.40;24.60
3037;DHT22;1528;52.550;13.408;2023-10-08T09:46:40;15.40;25.60
3037;DHT22;1528;52.550;13.408;2023-10-08T09:49:30;15.50;26.00
3037;DHT22;1528;52.550;13.408;2023-10-08T09:52:22;15.50;24.20
3037;DHT22;1528;52.550;13.408;2023-10-08T09:55:09;15.50;21.50
3037;DHT22;1528;52.550;13.408;2023-10-08T09:57:55;15.60;20.60
3037;DHT22;1528;52.550;13.408;2023-10-08T10:00:42;15.40;20.70
3037;DHT22;1528;52.550;13.408;2023-10-08T10:03:29;15.40;22.40
3037;DHT22;1528;52.550;13.408;2023-10-08T10:06:15;15.40;22.40
3037;DHT22;1528;52.550;13.408;2023-10-08T10:09:04;15.40;22.60
3037;DHT22;1528;52.550;13.408;2023-10-08T10:11:54;15.50;22.30
3037;DHT22;1528;52.550;13.408;2023-10-08T10:14:41;15.50;18.10
3037;DHT22;1528;52.550;13.408;2023-10-08T10:17:28;15.40;18.00
3037;DHT22;1528;52.550;13.408;2023-10-08T10:20:14;15.50;18.80
3037;DHT22;1528;52.550;13.408;2023-10-08T10:23:00;15.50;17.70
3037;DHT22;1528;52.550;13.408;2023-10-08T10:26:22;15.50;16.60
3037;DHT22;1528;52.550;13.408;2023-10-08T10:29:22;15.60;15.00
3037;DHT22;1528;52.550;13.408;2023-10-08T10:32:11;15.60;13.10
3037;DHT22;1528;52.550;13.408;2023-10-08T10:35:00;15.60;14.10
3037;DHT22;1528;52.550;13.408;2023-10-08T10:37:47;15.70;15.80
3037;DHT22;1528;52.550;13.408;2023-10-08T10:40:36;15.80;14.20
3037;DHT22;1528;52.550;13.408;2023-10-08T10:43:26;15.90;13.60
3037;DHT22;1528;52.550;13.408;2023-10-08T10:46:16;16.10;15.80
3037;DHT22;1528;52.550;13.408;2023-10-08T10:49:14;16.30;15.50
3037;DHT22;1528;52.550;13.408;2023-10-08T10:52:02;16.40;14.50
3037;DHT22;1528;52.550;13.408;2023-10-08T10:54:49;16.50;12.40
3037;DHT22;1528;52.550;13.408;2023-10-08T10:57:43;16.60;13.60
3037;DHT22;1528;52.550;13.408;2023-10-08T11:00:31;16.70;13.00
3037;DHT22;1528;52.550;13.408;2023-10-08T11:03:33;16.60;12.30
3037;DHT22;1528;52.550;13.408;2023-10-08T11:06:19;16.60;12.30
3037;DHT22;1528;52.550;13.408;2023-10-08T11:09:08;16.60;12.40
3037;DHT22;1528;52.550;13.408;2023-10-08T11:11:59;16.60;12.00
3037;DHT22;1528;52.550;13.408;2023-10-08T11:14:46;16.50;13.10
3037;DHT22;1528;52.550;13.408;2023-10-08T11:17:33;16.40;12.10
3037;DHT22;1528;52.550;13.408;2023-10-08T11:20:24;16.30;14.30
3037;DHT22;1528;52.550;13.408;2023-10-08T11:23:10;16.20;12.40
3037;DHT22;1528;52.550;13.408;2023-10-08T11:26:06;16.10;11.20
3037;DHT22;1528;52.550;13.408;2023-10-08T11:28:51;16.00;11.10
3037;DHT22;1528;52.550;13.408;2023-10-08T11:31:37;16.00;11.30
3037;DHT22;1528;52.550;13.408;2023-10-08T11:34:31;16.00;11.30
3037;DHT22;1528;52.550;13.408;2023-10-08T11:37:33;16.00;11.90
3037;DHT22;1528;52.550;13.408;2023-10-08T11:40:23;16.00;11.90
3037;DHT22;1528;52.550;13.408;2023-10-08T11:43:12;16.10;11.60
3037;DHT22;1528;52.550;13.408;2023-10-08T11:45:59;16.10;11.90
3037;DHT22;1528;52.550;13.408;2023-10-08T11:48:48;16.10;11.50
3037;DHT22;1528;52.550;13.408;2023-10-08T11:51:36;16.10;12.10
3037;DHT22;1528;52.550;13.408;2023-10-08T11:54:24;16.20;11.50
3037;DHT22;1528;52.550;13.408;2023-10-08T11:57:11;16.00;10.80
3037;DHT22;1528;52.550;13.408;2023-10-08T11:59:57;16.00;11.00
3037;DHT22;1528;52.550;13.408;2023-10-08T12:02:44;16.00;10.80
3037;DHT22;1528;52.550;13.408;2023-10-08T12:05:29;16.10;11.30
3037;DHT22;1528;52.550;13.408;2023-10-08T12:08:19;16.20;10.50
3037;DHT22;1528;52.550;13.408;2023-10-08T12:11:05;16.30;10.60
3037;DHT22;1528;52.550;13.408;2023-10-08T12:13:56;16.40;9.50
3037;DHT22;1528;52.550;13.408;2023-10-08T12:16:43;16.50;9.50
3037;DHT22;1528;52.550;13.408;2023-10-08T12:19:29;16.60;9.60
3037;DHT22;1528;52.550;13.408;2023-10-08T12:22:16;16.50;9.90
3037;DHT22;1528;52.550;13.408;2023-10-08T12:25:06;16.50;10.00
3037;DHT22;1528;52.550;13.408;2023-10-08T12:27:51;16.40;10.20
3037;DHT22;1528;52.550;13.408;2023-10-08T12:30:37;16.40;10.60
3037;DHT22;1528;52.550;13.408;2023-10-08T12:33:25;16.40;10.30
3037;DHT22;1528;52.550;13.408;2023-10-08T12:36:14;16.50;10.70
3037;DHT22;1528;52.550;13.408;2023-10-08T12:39:00;16.50;10.40
3037;DHT22;1528;52.550;13.408;2023-10-08T12:41:54;16.60;10.50
3037;DHT22;1528;52.550;13.408;2023-10-08T12:44:41;16.50;10.40
3037;DHT22;1528;52.550;13.408;2023-10-08T12:47:27;16.40;10.60
3037;DHT22;1528;52.550;13.408;2023-10-08T12:50:13;16.40;10.70
3037;DHT22;1528;52.550;13.408;2023-10-08T12:53:00;16.40;11.20
3037;DHT22;1528;52.550;13.408;2023-10-08T12:55:48;16.40;11.70
3037;DHT22;1528;52.550;13.408;2023-10-08T12:58:38;16.40;11.40
3037;DHT22;1528;52.550;13.408;2023-10-08T13:01:25;16.40;11.40
3037;DHT22;1528;52.550;13.408;2023-10-08T13:04:13;16.50;11.50
3037;DHT22;1528;52.550;13.408;2023-10-08T13:07:06;16.50;11.00
3037;DHT22;1528;52.550;13.408;2023-10-08T13:09:51;16.60;11.00
3037;DHT22;1528;52.550;13.408;2023-10-08T13:12:37;16.60;10.90
3037;DHT22;1528;52.550;13.408;2023-10-08T13:15:24;16.50;11.20
3037;DHT22;1528;52.550;13.408;2023-10-08T13:18:10;16.50;10.90
3037;DHT22;1528;52.550;13.408;2023-10-08T13:20:55;16.40;11.00
3037;DHT22;1528;52.550;13.408;2023-10-08T13:23:42;16.20;11.20
3037;DHT22;1528;52.550;13.408;2023-10-08T13:26:27;16.20;11.20
3037;DHT22;1528;52.550;13.408;2023-10-08T13:29:15;16.20;11.60
3037;DHT22;1528;52.550;13.408;2023-10-08T13:32:04;16.30;11.60
3037;DHT22;1528;52.550;13.408;2023-10-08T13:34:49;16.40;11.70
3037;DHT22;1528;52.550;13.408;2023-10-08T13:37:35;16.30;11.10
3037;DHT22;1528;52.550;13.408;2023-10-08T13:40:20;16.30;11.20
3037;DHT22;1528;52.550;13.408;2023-10-08T13:43:16;16.30;10.80
3037;DHT22;1528;52.550;13.408;2023-10-08T13:46:03;16.20;11.00
3037;DHT22;1528;52.550;13.408;2023-10-08T13:48:52;16.20;10.90
3037;DHT22;1528;52.550;13.408;2023-10-08T13:51:37;16.20;10.80
3037;DHT22;1528;52.550;13.408;2023-10-08T13:54:23;16.10;11.20
3037;DHT22;1528;52.550;13.408;2023-10-08T13:57:13;16.10;11.10
3037;DHT22;1528;52.550;13.408;2023-10-08T13:59:59;16.20;11.70
3037;DHT22;1528;52.550;13.408;2023-10-08T14:02:45;16.20;11.60
3037;DHT22;1528;52.550;13.408;2023-10-08T14:05:36;16.10;11.40
3037;DHT22;1528;52.550;13.408;2023-10-08T14:08:22;16.10;11.90
3037;DHT22;1528;52.550;13.408;2023-10-08T14:11:09;16.10;11.90
3037;DHT22;1528;52.550;13.408;2023-10-08T14:13:57;16.20;11.60
3037;DHT22;1528;52.550;13.408;2023-10-08T14:16:43;16.20;11.20
3037;DHT22;1528;52.550;13.408;2023-10-08T14:19:31;16.20;11.20
3037;DHT22;1528;52.550;13.408;2023-10-08T14:22:25;16.20;11.70
3037;DHT22;1528;52.550;13.408;2023-10-08T14:25:11;16.10;10.90
3037;DHT22;1528;52.550;13.408;2023-10-08T14:27:59;16.10;11.50
3037;DHT22;1528;52.550;13.408;2023-10-08T14:30:49;16.10;11.30
3037;DHT22;1528;52.550;13.408;2023-10-08T14:33:39;16.10;11.50
3037;DHT22;1528;52.550;13.408;2023-10-08T14:36:28;16.10;11.70
3037;DHT22;1528;52.550;13.408;2023-10-08T14:39:32;16.00;11.10
3037;DHT22;1528;52.550;13.408;2023-10-08T14:42:38;16.00;11.90
3037;DHT22;1528;52.550;13.408;2023-10-08T14:45:39;15.90;12.00
3037;DHT22;1528;52.550;13.408;2023-10-08T14:48:25;15.90;12.20
3037;DHT22;1528;52.550;13.408;2023-10-08T14:51:13;15.90;12.00
3037;DHT22;1528;52.550;13.408;2023-10-08T14:54:04;15.90;13.00
3037;DHT22;1528;52.550;13.408;2023-10-08T14:56:52;15.80;13.70
3037;DHT22;1528;52.550;13.408;2023-10-08T14:59:38;15.80;11.70
3037;DHT22;1528;52.550;13.408;2023-10-08T15:02:24;15.80;11.60
3037;DHT22;1528;52.550;13.408;2023-10-08T15:05:13;15.90;11.30
3037;DHT22;1528;52.550;13.408;2023-10-08T15:07:59;15.80;11.70
3037;DHT22;1528;52.550;13.408;2023-10-08T15:10:44;15.80;11.90
3037;DHT22;1528;52.550;13.408;2023-10-08T15:13:32;15.80;11.70
3037;DHT22;1528;52.550;13.408;2023-10-08T15:16:23;15.80;11.80
3037;DHT22;1528;52.550;13.408;2023-10-08T15:19:10;15.80;12.10
3037;DHT22;1528;52.550;13.408;2023-10-08T15:21:56;15.70;12.20
3037;DHT22;1528;52.550;13.408;2023-10-08T15:24:42;15.70;12.30
3037;DHT22;1528;52.550;13.408;2023-10-08T15:27:29;15.70;12.10
3037;DHT22;1528;52.550;13.408;2023-10-08T15:30:18;15.70;12.10
3037;DHT22;1528;52.550;13.408;2023-10-08T15:33:05;15.70;12.10
3037;DHT22;1528;52.550;13.408;2023-10-08T15:35:51;15.70;12.30
3037;DHT22;1528;52.550;13.408;2023-10-08T15:38:37;15.70;12.40
3037;DHT22;1528;52.550;13.408;2023-10-08T15:41:23;15.70;12.30
3037;DHT22;1528;52.550;13.408;2023-10-08T15:44:09;15.60;12.00
3037;DHT22;1528;52.550;13.408;2023-10-08T15:46:57;15.60;12.10
3037;DHT22;1528;52.550;13.408;2023-10-08T15:49:42;15.60;12.40
3037;DHT22;1528;52.550;13.408;2023-10-08T15:52:30;15.60;12.40
3037;DHT22;1528;52.550;13.408;2023-10-08T15:55:16;15.50;12.20
3037;DHT22;1528;52.550;13.408;2023-10-08T15:58:03;15.50;12.50
3037;DHT22;1528;52.550;13.408;2023-10-08T16:00:48;15.40;12.50
3037;DHT22;1528;52.550;13.408;2023-10-08T16:03:35;15.40;12.80
3037;DHT22;1528;52.550;13.408;2023-10-08T16:06:21;15.40;13.00
3037;DHT22;1528;52.550;13.408;2023-10-08T16:09:06;15.40;13.60
3037;DHT22;1528;52.550;13.408;2023-10-08T16:11:52;15.40;13.10
3037;DHT22;1528;52.550;13.408;2023-10-08T16:14:38;15.30;13.20
3037;DHT22;1528;52.550;13.408;2023-10-08T16:17:25;15.30;13.20
3037;DHT22;1528;52.550;13.408;2023-10-08T16:20:16;15.30;13.40
3037;DHT22;1528;52.550;13.408;2023-10-08T16:23:02;15.30;13.60
3037;DHT22;1528;52.550;13.408;2023-10-08T16:25:47;15.20;13.70
3037;DHT22;1528;52.550;13.408;2023-10-08T16:28:37;15.20;14.00
3037;DHT22;1528;52.550;13.408;2023-10-08T16:31:23;15.20;14.00
3037;DHT22;1528;52.550;13.408;2023-10-08T16:34:09;15.20;14.40
3037;DHT22;1528;52.550;13.408;2023-10-08T16:36:57;15.20;14.50
3037;DHT22;1528;52.550;13.408;2023-10-08T16:39:42;15.10;14.40
3037;DHT22;1528;52.550;13.408;2023-10-08T16:42:28;15.10;15.00
3037;DHT22;1528;52.550;13.408;2023-10-08T16:45:14;15.10;14.80
3037;DHT22;1528;52.550;13.408;2023-10-08T16:48:00;15.10;14.80
3037;DHT22;1528;52.550;13.408;2023-10-08T16:50:47;15.00;14.90
3037;DHT22;1528;52.550;13.408;2023-10-08T16:53:36;15.00;15.40
3037;DHT22;1528;52.550;13.408;2023-10-08T16:56:23;14.90;15.80
3037;DHT22;1528;52.550;13.408;2023-10-08T16:59:09;14.90;15.50
3037;DHT22;1528;52.550;13.408;2023-10-08T17:01:58;14.90;15.50
3037;DHT22;1528;52.550;13.408;2023-10-08T17:04:43;15.00;15.90
3037;DHT22;1528;52.550;13.408;2023-10-08T17:07:29;14.90;16.10
3037;DHT22;1528;52.550;13.408;2023-10-08T17:10:16;14.90;16.40
3037;DHT22;1528;52.550;13.408;2023-10-08T17:13:02;14.80;16.50
3037;DHT22;1528;52.550;13.408;2023-10-08T17:15:48;14.90;16.40
3037;DHT22;1528;52.550;13.408;2023-10-08T17:18:33;14.80;16.60
3037;DHT22;1528;52.550;13.408;2023-10-08T17:21:19;14.80;16.70
3037;DHT22;1528;52.550;13.408;2023-10-08T17:24:07;14.90;16.80
3037;DHT22;1528;52.550;13.408;2023-10-08T17:26:54;14.80;16.20
3037;DHT22;1528;52.550;13.408;2023-10-08T17:29:40;14.80;16.80
3037;DHT22;1528;52.550;13.408;2023-10-08T17:32:25;14.80;16.60
3037;DHT22;1528;52.550;13.408;2023-10-08T17:35:11;14.80;16.80
3037;DHT22;1528;52.550;13.408;2023-10-08T17:37:57;14.80;16.70
3037;DHT22;1528;52.550;13.408;2023-10-08T17:40:42;14.80;16.80
3037;DHT22;1528;52.550;13.408;2023-10-08T17:43:29;14.70;16.80
3037;DHT22;1528;52.550;13.408;2023-10-08T17:46:15;14.70;17.10
3037;DHT22;1528;52.550;13.408;2023-10-08T17:49:00;14.70;16.00
3037;DHT22;1528;52.550;13.408;2023-10-08T17:51:48;14.70;16.30
3037;DHT22;1528;52.550;13.408;2023-10-08T17:54:34;14.70;16.70
3037;DHT22;1528;52.550;13.408;2023-10-08T17:57:21;14.70;16.30
3037;DHT22;1528;52.550;13.408;2023-10-08T18:00:09;14.70;16.10
3037;DHT22;1528;52.550;13.408;2023-10-08T18:02:55;14.70;16.00
3037;DHT22;1528;52.550;13.408;2023-10-08T18:05:41;14.60;15.50
3037;DHT22;1528;52.550;13.408;2023-10-08T18:08:28;14.60;15.30
3037;DHT22;1528;52.550;13.408;2023-10-08T18:11:14;14.60;15.30